NCAR-RAP Real-Time Weather Data

Output produced by METARs form (20 February 2019  17:29 UTC)
found at http://weather.rap.ucar.edu/surface/
 
Conditions at: KPGD observed 20 February 2019  16:53 UTC
Temperature: 27.8°C (82°F)
Dewpoint: 20.0°C (68°F) [RH = 63%]
Pressure (altimeter): 30.12 inches Hg (1020.1 mb)
[Sea-level pressure: 1019.8 mb]
Winds: from the SSE (150 degrees) at 14 MPH (12 knots; 6.2 m/s)
Visibility: 10 or more miles (16+ km)
Ceiling: at least 12,000 feet AGL
Clouds: few clouds at 3100 feet AGL
scattered clouds at 3800 feet AGL
Present Weather: no significant weather observed at this time
KPGD 201653Z 15012KT 10SM FEW031 SCT038 28/20 A3012 RMK AO2 SLP198 T02780200

Conditions at: KPGD observed 20 February 2019  15:53 UTC
Temperature: 27.2°C (81°F)
Dewpoint: 20.6°C (69°F) [RH = 67%]
Pressure (altimeter): 30.14 inches Hg (1020.7 mb)
[Sea-level pressure: 1020.5 mb]
Winds: from the SSE (160 degrees) at 15 MPH (13 knots; 6.8 m/s)
Visibility: 10 or more miles (16+ km)
Ceiling: 3400 feet AGL
Clouds: scattered clouds at 2700 feet AGL
broken clouds at 3400 feet AGL
Present Weather: no significant weather observed at this time
KPGD 201553Z 16013KT 10SM SCT027 BKN034 27/21 A3014 RMK AO2 SLP205 T02720206

Conditions at: KPGD observed 20 February 2019  15:43 UTC
Temperature: 26.7°C (80°F)
Dewpoint: 20.6°C (69°F) [RH = 69%]
Pressure (altimeter): 30.14 inches Hg (1020.7 mb)
Winds: from the SSE (160 degrees) at 16 MPH (14 knots; 7.3 m/s)
gusting to 24 MPH (21 knots; 10.9 m/s)
Visibility: 10 or more miles (16+ km)
Ceiling: 3400 feet AGL
Clouds: scattered clouds at 2500 feet AGL
broken clouds at 3400 feet AGL
Present Weather: no significant weather observed at this time
KPGD 201543Z 16014G21KT 10SM SCT025 BKN034 27/21 A3014 RMK AO2 T02670206

Conditions at: KPGD observed 20 February 2019  15:01 UTC
Temperature: 26.7°C (80°F)
Dewpoint: 21.1°C (70°F) [RH = 71%]
Pressure (altimeter): 30.13 inches Hg (1020.4 mb)
Winds: from the SSE (150 degrees) at 15 MPH (13 knots; 6.8 m/s)
gusting to 23 MPH (20 knots; 10.4 m/s)
Visibility: 10 or more miles (16+ km)
Ceiling: 1800 feet AGL
Clouds: broken clouds at 1800 feet AGL
Present Weather: no significant weather observed at this time
KPGD 201501Z 15013G20KT 10SM BKN018 27/21 A3013 RMK AO2 T02670211

Conditions at: KPGD observed 20 February 2019  14:53 UTC
Temperature: 26.1°C (79°F)
Dewpoint: 20.6°C (69°F) [RH = 72%]
Pressure (altimeter): 30.13 inches Hg (1020.4 mb)
[Sea-level pressure: 1020.3 mb]
Winds: from the SE (140 degrees) at 15 MPH (13 knots; 6.8 m/s)
Visibility: 10 or more miles (16+ km)
Ceiling: at least 12,000 feet AGL
Clouds: scattered clouds at 1800 feet AGL
Present Weather: no significant weather observed at this time
KPGD 201453Z 14013KT 10SM SCT018 26/21 A3013 RMK AO2 SLP203 T02610206 50007

Conditions at: KPGD observed 20 February 2019  14:40 UTC
Temperature: 26.1°C (79°F)
Dewpoint: 21.1°C (70°F) [RH = 74%]
Pressure (altimeter): 30.13 inches Hg (1020.4 mb)
Winds: from the SE (140 degrees) at 14 MPH (12 knots; 6.2 m/s)
Visibility: 10 or more miles (16+ km)
Ceiling: 1800 feet AGL
Clouds: broken clouds at 1800 feet AGL
Present Weather: no significant weather observed at this time
KPGD 201440Z 14012KT 10SM BKN018 26/21 A3013 RMK AO2 T02610211

Conditions at: KPGD observed 20 February 2019  13:53 UTC
Temperature: 24.4°C (76°F)
Dewpoint: 21.1°C (70°F) [RH = 82%]
Pressure (altimeter): 30.14 inches Hg (1020.7 mb)
[Sea-level pressure: 1020.5 mb]
Winds: from the SE (140 degrees) at 13 MPH (11 knots; 5.7 m/s)
Visibility: 10 or more miles (16+ km)
Ceiling: at least 12,000 feet AGL
Clouds: scattered clouds at 1200 feet AGL
Present Weather: no significant weather observed at this time
KPGD 201353Z 14011KT 10SM SCT012 24/21 A3014 RMK AO2 SLP205 T02440211

Conditions at: KPGD observed 20 February 2019  12:53 UTC
Temperature: 21.7°C (71°F)
Dewpoint: 20.6°C (69°F) [RH = 93%]
Pressure (altimeter): 30.12 inches Hg (1020.1 mb)
[Sea-level pressure: 1020.1 mb]
Winds: from the SE (130 degrees) at 6 MPH (5 knots; 2.6 m/s)
Visibility: 9 miles (14 km)
Ceiling: at least 12,000 feet AGL
Clouds: few clouds at 1100 feet AGL
Present Weather: no significant weather observed at this time
KPGD 201253Z 13005KT 9SM FEW011 22/21 A3012 RMK AO2 SLP201 T02170206

Conditions at: KPGD observed 20 February 2019  12:33 UTC
Temperature: 21.7°C (71°F)
Dewpoint: 20.6°C (69°F) [RH = 93%]
Pressure (altimeter): 30.12 inches Hg (1020.1 mb)
Winds: from the SE (130 degrees) at 6 MPH (5 knots; 2.6 m/s)
Visibility: 10 or more miles (16+ km)
Ceiling: at least 12,000 feet AGL
Clouds: few clouds at 1100 feet AGL
Present Weather: no significant weather observed at this time
KPGD 201233Z 13005KT 10SM FEW011 22/21 A3012 RMK AO2 T02170206

Conditions at: KPGD observed 20 February 2019  12:02 UTC
Temperature: 21.7°C (71°F)
Dewpoint: 20.6°C (69°F) [RH = 93%]
Pressure (altimeter): 30.11 inches Hg (1019.7 mb)
Winds: from the SE (130 degrees) at 6 MPH (5 knots; 2.6 m/s)
Visibility: 10 or more miles (16+ km)
Ceiling: 1100 feet AGL
Clouds: broken clouds at 1100 feet AGL
broken clouds at 2600 feet AGL
broken clouds at 7000 feet AGL
Present Weather: no significant weather observed at this time
KPGD 201202Z 13005KT 10SM BKN011 BKN026 BKN070 22/21 A3011 RMK AO2 T02170206

Conditions at: KPGD observed 20 February 2019  11:53 UTC
Temperature: 21.7°C (71°F)
Dewpoint: 20.6°C (69°F) [RH = 93%]
Pressure (altimeter): 30.11 inches Hg (1019.7 mb)
[Sea-level pressure: 1019.6 mb]
Winds: from the SE (130 degrees) at 5 MPH (4 knots; 2.1 m/s)
Visibility: 10 or more miles (16+ km)
Ceiling: 2000 feet AGL
Clouds: scattered clouds at 1300 feet AGL
broken clouds at 2000 feet AGL
broken clouds at 2700 feet AGL
Present Weather: no significant weather observed at this time
KPGD 201153Z 13004KT 10SM SCT013 BKN020 BKN027 22/21 A3011 RMK AO2 SLP196 T02170206 10222 20206 53008

Conditions at: KPGD observed 20 February 2019  11:45 UTC
Temperature: 21.7°C (71°F)
Dewpoint: 20.6°C (69°F) [RH = 93%]
Pressure (altimeter): 30.11 inches Hg (1019.7 mb)
Winds: from the ESE (120 degrees) at 7 MPH (6 knots; 3.1 m/s)
Visibility: 10 or more miles (16+ km)
Ceiling: 2500 feet AGL
Clouds: few clouds at 1300 feet AGL
scattered clouds at 1900 feet AGL
broken clouds at 2500 feet AGL
Present Weather: no significant weather observed at this time
KPGD 201145Z 12006KT 10SM FEW013 SCT019 BKN025 22/21 A3011 RMK AO2 T02170206

Conditions at: KPGD observed 20 February 2019  11:17 UTC
Temperature: 22.2°C (72°F)
Dewpoint: 20.6°C (69°F) [RH = 91%]
Pressure (altimeter): 30.10 inches Hg (1019.4 mb)
Winds: from the ESE (120 degrees) at 6 MPH (5 knots; 2.6 m/s)
Visibility: 10 or more miles (16+ km)
Ceiling: 1300 feet AGL
Clouds: broken clouds at 1300 feet AGL
broken clouds at 2000 feet AGL
overcast cloud deck at 2600 feet AGL
Present Weather: no significant weather observed at this time
KPGD 201117Z 12005KT 10SM BKN013 BKN020 OVC026 22/21 A3010 RMK AO2 T02220206

Conditions at: KPGD observed 20 February 2019  10:53 UTC
Temperature: 21.7°C (71°F)
Dewpoint: 20.6°C (69°F) [RH = 93%]
Pressure (altimeter): 30.09 inches Hg (1019.0 mb)
[Sea-level pressure: 1019.0 mb]
Winds: from the SE (130 degrees) at 3 MPH (3 knots; 1.6 m/s)
Visibility: 10 or more miles (16+ km)
Ceiling: 2600 feet AGL
Clouds: scattered clouds at 1700 feet AGL
broken clouds at 2600 feet AGL
overcast cloud deck at 7000 feet AGL
Present Weather: no significant weather observed at this time
KPGD 201053Z 13003KT 10SM SCT017 BKN026 OVC070 22/21 A3009 RMK AO2 SLP190 T02170206

Conditions at: KPGD observed 20 February 2019  09:53 UTC
Temperature: 21.7°C (71°F)
Dewpoint: 20.0°C (68°F) [RH = 90%]
Pressure (altimeter): 30.09 inches Hg (1019.0 mb)
[Sea-level pressure: 1018.8 mb]
Winds: from the SE (130 degrees) at 6 MPH (5 knots; 2.6 m/s)
Visibility: 10 or more miles (16+ km)
Ceiling: 7500 feet AGL
Clouds: overcast cloud deck at 7500 feet AGL
Present Weather: automated observation with no human augmentation;
there may or may not be significant weather present at this time
KPGD 200953Z AUTO 13005KT 10SM OVC075 22/20 A3009 RMK AO2 SLP188 T02170200

Conditions at: KPGD observed 20 February 2019  08:53 UTC
Temperature: 21.7°C (71°F)
Dewpoint: 20.0°C (68°F) [RH = 90%]
Pressure (altimeter): 30.08 inches Hg (1018.7 mb)
[Sea-level pressure: 1018.8 mb]
Winds: from the ESE (120 degrees) at 8 MPH (7 knots; 3.6 m/s)
Visibility: 10 or more miles (16+ km)
Ceiling: 6000 feet AGL
Clouds: few clouds at 4700 feet AGL
overcast cloud deck at 6000 feet AGL
Present Weather: automated observation with no human augmentation;
there may or may not be significant weather present at this time
KPGD 200853Z AUTO 12007KT 10SM FEW047 OVC060 22/20 A3008 RMK AO2 SLP188 T02170200 58015

Conditions at: KPGD observed 20 February 2019  07:53 UTC
Temperature: 21.1°C (70°F)
Dewpoint: 18.9°C (66°F) [RH = 87%]
Pressure (altimeter): 30.10 inches Hg (1019.4 mb)
[Sea-level pressure: 1019.2 mb]
Winds: from the E (100 degrees) at 9 MPH (8 knots; 4.2 m/s)
Visibility: 10 or more miles (16+ km)
Ceiling: 6000 feet AGL
Clouds: overcast cloud deck at 6000 feet AGL
Present Weather: automated observation with no human augmentation;
there may or may not be significant weather present at this time
KPGD 200753Z AUTO 10008KT 10SM OVC060 21/19 A3010 RMK AO2 SLP192 T02110189

Conditions at: KPGD observed 20 February 2019  06:53 UTC
Temperature: 20.6°C (69°F)
Dewpoint: 18.9°C (66°F) [RH = 90%]
Pressure (altimeter): 30.12 inches Hg (1020.1 mb)
[Sea-level pressure: 1019.9 mb]
Winds: from the E (100 degrees) at 9 MPH (8 knots; 4.2 m/s)
Visibility: 10 or more miles (16+ km)
Ceiling: at least 12,000 feet AGL
Clouds: few clouds at 8000 feet AGL
Present Weather: automated observation with no human augmentation;
there may or may not be significant weather present at this time
KPGD 200653Z AUTO 10008KT 10SM FEW080 21/19 A3012 RMK AO2 SLP199 T02060189

Conditions at: KPGD observed 20 February 2019  05:53 UTC
Temperature: 20.6°C (69°F)
Dewpoint: 18.3°C (65°F) [RH = 87%]
Pressure (altimeter): 30.13 inches Hg (1020.4 mb)
[Sea-level pressure: 1020.2 mb]
Winds: from the E (100 degrees) at 7 MPH (6 knots; 3.1 m/s)
Visibility: 10 or more miles (16+ km)
Ceiling: at least 12,000 feet AGL
Clouds: sky clear below 12,000 feet AGL
Present Weather: automated observation with no human augmentation;
there may or may not be significant weather present at this time
KPGD 200553Z AUTO 10006KT 10SM CLR 21/18 A3013 RMK AO2 SLP202 T02060183 10261 20206 58009

Conditions at: KPGD observed 20 February 2019  04:53 UTC
Temperature: 21.1°C (70°F)
Dewpoint: 18.3°C (65°F) [RH = 84%]
Pressure (altimeter): 30.15 inches Hg (1021.1 mb)
[Sea-level pressure: 1020.8 mb]
Winds: from the ESE (110 degrees) at 8 MPH (7 knots; 3.6 m/s)
Visibility: 10 or more miles (16+ km)
Ceiling: at least 12,000 feet AGL
Clouds: sky clear below 12,000 feet AGL
Present Weather: automated observation with no human augmentation;
there may or may not be significant weather present at this time
KPGD 200453Z AUTO 11007KT 10SM CLR 21/18 A3015 RMK AO2 SLP208 T02110183 403170178

Conditions at: KPGD observed 20 February 2019  03:53 UTC
Temperature: 20.6°C (69°F)
Dewpoint: 18.3°C (65°F) [RH = 87%]
Pressure (altimeter): 30.16 inches Hg (1021.4 mb)
[Sea-level pressure: 1021.3 mb]
Winds: from the E (90 degrees) at 7 MPH (6 knots; 3.1 m/s)
Visibility: 10 or more miles (16+ km)
Ceiling: at least 12,000 feet AGL
Clouds: sky clear below 12,000 feet AGL
Present Weather: automated observation with no human augmentation;
there may or may not be significant weather present at this time
KPGD 200353Z AUTO 09006KT 10SM CLR 21/18 A3016 RMK AO2 SLP213 T02060183

Conditions at: KPGD observed 20 February 2019  02:53 UTC
Temperature: 22.2°C (72°F)
Dewpoint: 17.2°C (63°F) [RH = 73%]
Pressure (altimeter): 30.16 inches Hg (1021.4 mb)
[Sea-level pressure: 1021.1 mb]
Winds: from the E (100 degrees) at 7 MPH (6 knots; 3.1 m/s)
Visibility: 10 or more miles (16+ km)
Ceiling: at least 12,000 feet AGL
Clouds: sky clear below 12,000 feet AGL
Present Weather: automated observation with no human augmentation;
there may or may not be significant weather present at this time
KPGD 200253Z AUTO 10006KT 10SM CLR 22/17 A3016 RMK AO2 SLP211 T02220172 53013

Conditions at: KPGD observed 20 February 2019  01:53 UTC
Temperature: 23.3°C (74°F)
Dewpoint: 17.2°C (63°F) [RH = 69%]
Pressure (altimeter): 30.15 inches Hg (1021.1 mb)
[Sea-level pressure: 1020.9 mb]
Winds: from the E (100 degrees) at 8 MPH (7 knots; 3.6 m/s)
Visibility: 10 or more miles (16+ km)
Ceiling: at least 12,000 feet AGL
Clouds: sky clear below 12,000 feet AGL
Present Weather: automated observation with no human augmentation;
there may or may not be significant weather present at this time
KPGD 200153Z AUTO 10007KT 10SM CLR 23/17 A3015 RMK AO2 SLP209 T02330172

Conditions at: KPGD observed 20 February 2019  00:53 UTC
Temperature: 25.0°C (77°F)
Dewpoint: 17.2°C (63°F) [RH = 62%]
Pressure (altimeter): 30.13 inches Hg (1020.4 mb)
[Sea-level pressure: 1020.1 mb]
Winds: from the ESE (110 degrees) at 12 MPH (10 knots; 5.2 m/s)
Visibility: 10 or more miles (16+ km)
Ceiling: at least 12,000 feet AGL
Clouds: sky clear below 12,000 feet AGL
Present Weather: no significant weather observed at this time
KPGD 200053Z 11010KT 10SM CLR 25/17 A3013 RMK AO2 SLP201 T02500172

Conditions at: KPGD observed 19 February 2019  23:53 UTC
Temperature: 26.7°C (80°F)
Dewpoint: 17.8°C (64°F) [RH = 58%]
Pressure (altimeter): 30.12 inches Hg (1020.1 mb)
[Sea-level pressure: 1019.9 mb]
Winds: from the SE (130 degrees) at 12 MPH (10 knots; 5.2 m/s)
Visibility: 10 or more miles (16+ km)
Ceiling: at least 12,000 feet AGL
Clouds: few clouds at 4800 feet AGL
Present Weather: no significant weather observed at this time
KPGD 192353Z 13010KT 10SM FEW048 27/18 A3012 RMK AO2 SLP199 T02670178 10317 20267 53007

Conditions at: KPGD observed 19 February 2019  22:53 UTC
Temperature: 28.3°C (83°F)
Dewpoint: 16.1°C (61°F) [RH = 48%]
Pressure (altimeter): 30.11 inches Hg (1019.7 mb)
[Sea-level pressure: 1019.5 mb]
Winds: from the SE (140 degrees) at 14 MPH (12 knots; 6.2 m/s)
Visibility: 10 or more miles (16+ km)
Ceiling: at least 12,000 feet AGL
Clouds: sky clear below 12,000 feet AGL
Present Weather: no significant weather observed at this time
KPGD 192253Z 14012KT 10SM CLR 28/16 A3011 RMK AO2 SLP195 T02830161

Conditions at: KPGD observed 19 February 2019  21:53 UTC
Temperature: 30.0°C (86°F)
Dewpoint: 16.1°C (61°F) [RH = 43%]
Pressure (altimeter): 30.10 inches Hg (1019.4 mb)
[Sea-level pressure: 1019.3 mb]
Winds: from the SE (130 degrees) at 16 MPH (14 knots; 7.3 m/s)
gusting to 24 MPH (21 knots; 10.9 m/s)
Visibility: 10 or more miles (16+ km)
Ceiling: at least 12,000 feet AGL
Clouds: sky clear below 12,000 feet AGL
Present Weather:
SOME DATA ABOVE MAY BE INACCURATE!!!
"$" is an indication the sensor requires maintenance
KPGD 192153Z 13014G21KT 10SM CLR 30/16 A3010 RMK AO2 SLP193 T03000161 $

Conditions at: KPGD observed 19 February 2019  20:53 UTC
Temperature: 31.1°C (88°F)
Dewpoint: 16.7°C (62°F) [RH = 42%]
Pressure (altimeter): 30.10 inches Hg (1019.4 mb)
[Sea-level pressure: 1019.2 mb]
Winds: from the SE (130 degrees) at 16 MPH (14 knots; 7.3 m/s)
Visibility: 10 or more miles (16+ km)
Ceiling: at least 12,000 feet AGL
Clouds: sky clear below 12,000 feet AGL
Present Weather:
SOME DATA ABOVE MAY BE INACCURATE!!!
"$" is an indication the sensor requires maintenance
KPGD 192053Z 13014KT 10SM CLR 31/17 A3010 RMK AO2 SLP192 T03110167 56029 $

Conditions at: KPGD observed 19 February 2019  19:53 UTC
Temperature: 31.1°C (88°F)
Dewpoint: 17.8°C (64°F) [RH = 45%]
Pressure (altimeter): 30.11 inches Hg (1019.7 mb)
[Sea-level pressure: 1019.6 mb]
Winds: from the SE (130 degrees) at 8 MPH (7 knots; 3.6 m/s)
Visibility: 10 or more miles (16+ km)
Ceiling: at least 12,000 feet AGL
Clouds: scattered clouds at 4500 feet AGL
Present Weather:
SOME DATA ABOVE MAY BE INACCURATE!!!
"$" is an indication the sensor requires maintenance
KPGD 191953Z 13007KT 10SM SCT045 31/18 A3011 RMK AO2 SLP196 T03110178 $

Conditions at: KPGD observed 19 February 2019  18:53 UTC
Temperature: 30.0°C (86°F)
Dewpoint: 18.9°C (66°F) [RH = 51%]
Pressure (altimeter): 30.14 inches Hg (1020.7 mb)
[Sea-level pressure: 1020.7 mb]
Winds: from the E (100 degrees) at 12 MPH (10 knots; 5.2 m/s)
Visibility: 10 or more miles (16+ km)
Ceiling: 7000 feet AGL
Clouds: scattered clouds at 4300 feet AGL
scattered clouds at 5000 feet AGL
broken clouds at 7000 feet AGL
Present Weather:
SOME DATA ABOVE MAY BE INACCURATE!!!
"$" is an indication the sensor requires maintenance
KPGD 191853Z 10010KT 10SM SCT043 SCT050 BKN070 30/19 A3014 RMK AO2 SLP207 T03000189 $

Conditions at: KPGD observed 19 February 2019  17:53 UTC
Temperature: 28.9°C (84°F)
Dewpoint: 20.0°C (68°F) [RH = 59%]
Pressure (altimeter): 30.18 inches Hg (1022.1 mb)
[Sea-level pressure: 1022.1 mb]
Winds: from the SSE (160 degrees) at 13 MPH (11 knots; 5.7 m/s)
Visibility: 10 or more miles (16+ km)
Ceiling: at least 12,000 feet AGL
Clouds: few clouds at 3200 feet AGL
scattered clouds at 8000 feet AGL
Present Weather: no significant weather observed at this time
KPGD 191753Z 16011KT 10SM FEW032 SCT080 29/20 A3018 RMK AO2 SLP221 T02890200 10294 20189 58021